Time;durP1;ratioP1;P1;durP2;ratioP2;P2;SDS_P1;SDS_P2;PMS_P1;PMS_P2;Temp;Humidity;BMP_temperature;BMP_pressure;BME280_temperature;BME280_humidity;BME280_pressure;Samples;Min_cycle;Max_cycle;Signal;HPM_P1;HPM_P2
2022/02/13 00:01:14;;;;;;;4.70;2.40;;;;;;;2.90;55.53;98018.59;5093327;28;20507;-70
2022/02/13 00:03:40;;;;;;;5.47;2.80;;;;;;;2.95;55.36;98009.19;5093327;28;20036;-70
2022/02/13 00:06:05;;;;;;;6.15;3.20;;;;;;;2.93;55.36;98015.19;5093268;28;20078;-69
2022/02/13 00:08:31;;;;;;;6.40;3.13;;;;;;;2.90;55.82;98016.88;5093193;28;20111;-70
2022/02/13 00:10:56;;;;;;;6.97;3.17;;;;;;;2.81;55.21;98021.91;5093300;28;20090;-69
2022/02/13 00:13:22;;;;;;;7.88;3.00;;;;;;;2.87;55.76;98021.13;5093303;28;20434;-70
2022/02/13 00:15:48;;;;;;;4.10;2.60;;;;;;;2.84;55.24;98010.72;5093246;28;20066;-70
2022/02/13 00:18:13;;;;;;;4.60;2.53;;;;;;;2.79;55.45;98005.47;5092922;28;20417;-69
2022/02/13 00:20:39;;;;;;;4.93;2.88;;;;;;;2.81;55.75;98010.69;5093127;28;20032;-70
2022/02/13 00:23:05;;;;;;;4.65;2.92;;;;;;;2.78;55.59;98014.09;5092963;28;20020;-69
2022/02/13 00:25:30;;;;;;;4.57;2.92;;;;;;;2.77;54.96;98007.19;5093193;28;20473;-70
2022/02/13 00:27:56;;;;;;;4.18;2.97;;;;;;;2.72;55.30;98003.63;5093148;28;20031;-69
2022/02/13 00:30:22;;;;;;;6.88;2.90;;;;;;;2.71;55.13;97996.75;5093896;28;20525;-70
2022/02/13 00:32:50;;;;;;;5.57;2.70;;;;;;;2.71;55.50;97997.59;5097275;28;20100;-69
2022/02/13 00:35:16;;;;;;;4.38;2.65;;;;;;;2.60;55.72;98012.94;5097231;28;20020;-70
2022/02/13 00:37:43;;;;;;;5.38;2.88;;;;;;;2.61;55.56;98011.19;5097210;28;20108;-70
2022/02/13 00:40:09;;;;;;;5.03;3.47;;;;;;;2.51;55.82;97995.56;5097078;28;20035;-69
2022/02/13 00:42:35;;;;;;;6.93;3.00;;;;;;;2.47;56.08;97988.56;5096870;28;20086;-70
2022/02/13 00:45:02;;;;;;;8.15;3.20;;;;;;;2.46;56.32;97996.28;5096968;28;20020;-69
2022/02/13 00:47:28;;;;;;;6.13;3.08;;;;;;;2.38;56.09;97991.88;5096834;28;20466;-69
2022/02/13 00:49:53;;;;;;;3.03;2.55;;;;;;;2.43;56.55;98002.28;5096929;28;20027;-69
2022/02/13 00:52:19;;;;;;;4.05;2.88;;;;;;;2.42;56.59;97994.50;5096825;28;20031;-70
2022/02/13 00:54:45;;;;;;;4.65;2.78;;;;;;;2.38;56.40;97984.13;5096913;28;20035;-69
2022/02/13 00:57:10;;;;;;;6.10;3.15;;;;;;;2.42;55.87;97995.38;5096704;28;20101;-70
2022/02/13 00:59:36;;;;;;;4.20;2.67;;;;;;;2.36;56.02;97977.19;5096718;28;20027;-69
2022/02/13 01:02:02;;;;;;;6.70;2.80;;;;;;;2.36;56.11;97992.69;5096633;28;20068;-69
2022/02/13 01:04:27;;;;;;;5.03;3.05;;;;;;;2.34;56.05;97987.50;5096556;28;20046;-70
2022/02/13 01:06:53;;;;;;;5.70;3.03;;;;;;;2.35;56.24;97990.97;5096555;28;20031;-70
2022/02/13 01:09:18;;;;;;;10.30;3.03;;;;;;;2.24;56.83;97995.91;5096528;28;20020;-69
2022/02/13 01:11:44;;;;;;;6.00;2.50;;;;;;;2.21;56.79;97988.09;5096508;28;20077;-69
2022/02/13 01:14:10;;;;;;;4.75;3.08;;;;;;;2.21;57.05;97976.09;5096450;28;20031;-69
2022/02/13 01:16:35;;;;;;;10.65;2.88;;;;;;;2.26;56.71;97989.09;5096334;28;20028;-70
2022/02/13 01:19:01;;;;;;;4.45;2.88;;;;;;;2.25;56.65;97977.00;5096074;28;20456;-69
2022/02/13 01:21:29;;;;;;;5.93;2.63;;;;;;;2.16;56.87;97971.69;5096243;28;20016;-70
2022/02/13 01:23:55;;;;;;;4.22;2.70;;;;;;;2.13;57.14;97975.94;5096188;28;20043;-70
2022/02/13 01:26:21;;;;;;;7.72;3.05;;;;;;;2.13;57.18;97970.75;5096218;28;20026;-70
2022/02/13 01:28:47;;;;;;;4.88;3.10;;;;;;;2.12;57.31;97973.31;5096194;28;20020;-70
2022/02/13 01:31:13;;;;;;;7.00;3.17;;;;;;;2.13;57.05;97970.75;5096087;28;20143;-69
2022/02/13 01:33:39;;;;;;;5.95;3.22;;;;;;;2.14;57.02;97959.59;5095988;28;20070;-69
2022/02/13 01:36:05;;;;;;;7.30;3.30;;;;;;;2.11;57.71;97949.19;5095920;28;20024;-70
2022/02/13 01:38:33;;;;;;;4.53;2.72;;;;;;;2.07;58.11;97944.81;5095978;28;20100;-70
2022/02/13 01:40:59;;;;;;;4.88;2.85;;;;;;;2.13;58.47;97950.09;5095340;28;20043;-69
2022/02/13 01:43:25;;;;;;;5.70;3.03;;;;;;;2.09;59.48;97948.31;5095744;28;20066;-69
2022/02/13 01:45:51;;;;;;;10.30;3.30;;;;;;;2.13;59.59;97947.53;5095877;28;20027;-70
2022/02/13 01:48:16;;;;;;;4.72;3.17;;;;;;;2.08;59.91;97940.53;5095815;28;20024;-70
2022/02/13 01:50:48;;;;;;;5.95;3.00;;;;;;;2.11;60.27;97941.44;5095921;28;20359;-70
2022/02/13 01:53:14;;;;;;;7.32;3.50;;;;;;;2.08;60.56;97938.81;5095731;28;20032;-70
2022/02/13 01:55:40;;;;;;;9.10;3.92;;;;;;;2.06;61.69;97934.47;5095648;28;20031;-69
2022/02/13 01:58:05;;;;;;;5.85;3.65;;;;;;;2.00;62.47;97933.53;5095524;28;20028;-70
2022/02/13 02:00:31;;;;;;;8.38;3.38;;;;;;;2.05;62.45;97937.91;5095591;28;20115;-69
2022/02/13 02:02:57;;;;;;;4.53;3.33;;;;;;;2.02;63.49;97936.16;5095470;28;20381;-70
2022/02/13 02:05:23;;;;;;;4.53;3.20;;;;;;;1.99;63.90;97938.66;5095512;28;20051;-69
2022/02/13 02:07:48;;;;;;;8.65;3.25;;;;;;;1.89;64.91;97932.44;5095364;28;20531;-70
2022/02/13 02:10:21;;;;;;;6.05;3.10;;;;;;;1.97;64.59;97935.16;5095434;28;20119;-70
2022/02/13 02:12:47;;;;;;;9.70;4.85;;;;;;;1.89;65.33;97941.06;5095399;28;20367;-69
2022/02/13 02:15:13;;;;;;;5.80;2.97;;;;;;;1.91;65.15;97932.47;5095284;28;20081;-70
2022/02/13 02:17:39;;;;;;;7.45;3.60;;;;;;;1.89;65.46;97933.31;5095176;28;20021;-70
2022/02/13 02:20:05;;;;;;;4.78;3.35;;;;;;;1.90;65.51;97944.53;5095040;28;20089;-69
2022/02/13 02:22:30;;;;;;;5.38;3.05;;;;;;;1.82;66.59;97943.50;5095099;28;20036;-70
2022/02/13 02:24:56;;;;;;;4.93;3.35;;;;;;;1.92;66.47;97945.41;5095049;28;20497;-70
2022/02/13 02:27:22;;;;;;;5.93;3.45;;;;;;;1.96;66.29;97938.59;5094890;28;20024;-69
2022/02/13 02:29:47;;;;;;;7.85;3.47;;;;;;;1.89;66.48;97953.09;5094956;28;20012;-69
2022/02/13 02:32:13;;;;;;;8.00;3.40;;;;;;;1.88;67.19;97954.81;5094918;28;20385;-70
2022/02/13 02:34:39;;;;;;;11.07;4.07;;;;;;;1.90;67.66;97952.28;5094927;28;20055;-69
2022/02/13 02:37:09;;;;;;;9.70;3.22;;;;;;;1.93;67.64;97954.03;5094886;28;20024;-69
2022/02/13 02:39:35;;;;;;;6.57;3.70;;;;;;;1.94;67.91;97956.66;5094865;28;20047;-70
2022/02/13 02:42:02;;;;;;;7.70;3.53;;;;;;;1.93;68.25;97954.03;5094844;28;20024;-70
2022/02/13 02:44:28;;;;;;;7.80;3.38;;;;;;;1.98;67.92;97954.97;5094606;28;20469;-69
2022/02/13 02:46:53;;;;;;;6.40;4.03;;;;;;;1.96;68.35;97957.53;5094593;28;20377;-70
2022/02/13 02:49:19;;;;;;;7.43;3.63;;;;;;;1.97;68.33;97955.81;5094527;28;20024;-70
2022/02/13 02:51:45;;;;;;;7.38;3.83;;;;;;;1.99;68.39;97956.72;5094573;28;20016;-70
2022/02/13 02:54:10;;;;;;;4.25;3.08;;;;;;;2.04;68.47;97960.25;5093464;28;20027;-70
2022/02/13 02:56:36;;;;;;;7.28;3.50;;;;;;;2.07;68.69;97959.44;5094512;28;20443;-70
2022/02/13 02:59:01;;;;;;;7.05;3.70;;;;;;;2.09;68.83;97952.59;5094502;28;20051;-69
2022/02/13 03:01:27;;;;;;;5.07;3.25;;;;;;;2.11;68.67;97949.19;5094353;28;20025;-70
2022/02/13 03:03:53;;;;;;;6.60;3.33;;;;;;;2.20;68.94;97957.97;5094308;28;20035;-70
2022/02/13 03:06:18;;;;;;;9.10;3.75;;;;;;;2.17;69.23;97955.34;5094192;28;20024;-69
2022/02/13 03:08:44;;;;;;;7.32;3.10;;;;;;;2.17;69.48;97951.06;5094298;28;20041;-70
2022/02/13 03:11:09;;;;;;;7.15;3.65;;;;;;;2.19;69.26;97957.09;5094248;28;20020;-70
2022/02/13 03:13:35;;;;;;;8.98;3.92;;;;;;;2.22;69.31;97956.28;5094093;28;20048;-69
2022/02/13 03:16:01;;;;;;;5.68;3.63;;;;;;;2.24;69.27;97958.06;5094090;28;20059;-69
2022/02/13 03:18:30;;;;;;;8.15;3.45;;;;;;;2.33;68.96;97964.22;5093689;28;20068;-70
2022/02/13 03:20:57;;;;;;;4.50;2.83;;;;;;;2.36;68.89;97961.69;5093959;28;20036;-70
2022/02/13 03:23:22;;;;;;;6.82;3.72;;;;;;;2.34;69.12;97953.91;5093842;28;20505;-70
2022/02/13 03:25:48;;;;;;;6.97;3.00;;;;;;;2.39;69.03;97960.03;5093862;28;20028;-70
2022/02/13 03:28:14;;;;;;;8.90;3.42;;;;;;;2.39;69.04;97959.16;5093891;28;20028;-69
2022/02/13 03:30:41;;;;;;;4.90;2.95;;;;;;;2.39;68.81;97962.63;5093893;28;20024;-70
2022/02/13 03:33:06;;;;;;;5.80;3.33;;;;;;;2.37;68.95;97953.97;5093900;28;20048;-69
2022/02/13 03:35:32;;;;;;;8.23;3.17;;;;;;;2.27;69.11;97955.53;5093829;28;20389;-69
2022/02/13 03:37:58;;;;;;;6.43;3.15;;;;;;;2.22;69.29;97957.16;5093704;28;20024;-70
2022/02/13 03:40:24;;;;;;;7.47;3.35;;;;;;;2.23;69.71;97955.44;5093598;28;20016;-70
2022/02/13 03:42:49;;;;;;;4.30;2.90;;;;;;;2.21;69.84;97955.41;5093499;28;20095;-70
2022/02/13 03:45:15;;;;;;;7.65;3.45;;;;;;;2.27;69.42;97957.25;5093638;28;20149;-70
2022/02/13 03:47:41;;;;;;;6.00;3.05;;;;;;;2.31;68.88;97966.78;5093529;28;20031;-70
2022/02/13 03:50:08;;;;;;;5.20;2.47;;;;;;;2.31;68.68;97958.16;5093437;28;20058;-70
2022/02/13 03:52:34;;;;;;;11.05;3.00;;;;;;;2.31;68.32;97958.16;5093527;28;20515;-70
2022/02/13 03:55:03;;;;;;;5.88;3.40;;;;;;;2.32;68.15;97958.16;5093458;28;20033;-69
2022/02/13 03:57:29;;;;;;;11.23;2.70;;;;;;;2.23;67.58;97955.44;5093539;28;20043;-70
2022/02/13 03:59:55;;;;;;;5.88;2.70;;;;;;;2.27;67.39;97958.13;5093280;28;20036;-69
2022/02/13 04:02:22;;;;;;;5.15;2.60;;;;;;;2.21;67.42;97962.28;5093341;28;20020;-69
2022/02/13 04:04:48;;;;;;;4.32;2.55;;;;;;;2.15;67.19;97955.31;5093047;28;20027;-69
2022/02/13 04:07:14;;;;;;;7.90;2.80;;;;;;;2.22;66.69;97958.84;5093226;28;20023;-70
2022/02/13 04:09:40;;;;;;;7.15;3.15;;;;;;;2.25;66.62;97957.22;5075331;28;20020;-70
2022/02/13 04:12:05;;;;;;;8.13;2.90;;;;;;;2.21;66.53;97955.41;5093187;28;20119;-70
2022/02/13 04:14:31;;;;;;;8.27;3.08;;;;;;;2.24;66.43;97957.19;5093112;28;20085;-70
2022/02/13 04:16:57;;;;;;;5.93;3.10;;;;;;;2.22;66.16;97970.06;5093108;28;20077;-69
2022/02/13 04:19:22;;;;;;;9.70;2.65;;;;;;;2.13;66.33;97956.97;5093045;28;20043;-70
2022/02/13 04:21:48;;;;;;;4.28;2.63;;;;;;;2.17;65.88;97956.22;5093183;28;20034;-70
2022/02/13 04:24:14;;;;;;;10.63;2.90;;;;;;;2.22;65.48;97962.31;5092882;28;20055;-70
2022/02/13 04:26:40;;;;;;;7.22;2.80;;;;;;;2.19;65.44;97967.41;5075043;28;20024;-70
2022/02/13 04:29:07;;;;;;;7.65;2.90;;;;;;;2.21;65.73;97970.03;5093082;28;20077;-70
2022/02/13 04:31:33;;;;;;;7.00;2.75;;;;;;;2.24;65.68;97968.41;5093086;28;20025;-69
2022/02/13 04:33:58;;;;;;;4.38;2.85;;;;;;;2.20;65.03;97963.13;5093045;28;20035;-70
2022/02/13 04:36:24;;;;;;;4.63;2.58;;;;;;;2.24;65.06;97964.94;5092962;28;20040;-70
2022/02/13 04:38:50;;;;;;;5.55;3.28;;;;;;;2.22;65.23;97966.59;5093007;28;20373;-70
2022/02/13 04:41:16;;;;;;;3.33;2.38;;;;;;;2.14;65.31;97962.16;5093000;28;20504;-69
2022/02/13 04:43:41;;;;;;;2.90;2.40;;;;;;;2.12;65.57;97970.72;5092929;28;20071;-70
2022/02/13 04:46:07;;;;;;;8.82;2.30;;;;;;;2.14;65.35;97976.81;5092905;28;20024;-70
2022/02/13 04:48:32;;;;;;;6.38;2.85;;;;;;;2.14;65.04;97975.06;5092782;28;20016;-69
2022/02/13 04:50:58;;;;;;;7.57;2.33;;;;;;;2.17;64.91;97969.13;5092789;28;20561;-70
2022/02/13 04:53:23;;;;;;;5.10;2.55;;;;;;;2.16;65.46;97982.00;5092827;28;20303;-69
2022/02/13 04:55:50;;;;;;;4.53;2.55;;;;;;;2.24;64.90;97975.25;5092835;28;20073;-69
2022/02/13 04:58:19;;;;;;;4.78;2.53;;;;;;;2.16;64.96;97972.53;5092735;28;20032;-69
2022/02/13 05:00:45;;;;;;;5.95;2.45;;;;;;;2.18;65.03;97981.19;5092853;28;20024;-70
2022/02/13 05:03:11;;;;;;;11.32;2.75;;;;;;;2.18;64.95;97975.13;5092786;28;20488;-70
2022/02/13 05:05:37;;;;;;;5.55;2.53;;;;;;;2.22;64.52;97977.81;5092704;28;20073;-69
2022/02/13 05:08:03;;;;;;;6.10;3.53;;;;;;;2.23;64.25;97984.69;5092793;28;20055;-70
2022/02/13 05:10:28;;;;;;;5.60;2.63;;;;;;;2.23;64.38;97984.69;5092737;28;20023;-70
2022/02/13 05:12:54;;;;;;;3.97;2.40;;;;;;;2.21;63.94;97981.25;5074493;28;20398;-70
2022/02/13 05:15:21;;;;;;;3.00;2.25;;;;;;;2.18;64.11;97991.50;5092587;28;20021;-69
2022/02/13 05:17:47;;;;;;;8.52;3.40;;;;;;;2.14;64.41;97987.13;5095493;28;20020;-69
2022/02/13 05:20:13;;;;;;;6.38;2.60;;;;;;;2.14;64.20;97987.13;5096305;28;20036;-70
2022/02/13 05:22:39;;;;;;;5.70;2.67;;;;;;;2.18;64.03;97991.50;5096246;28;20099;-70
2022/02/13 05:25:05;;;;;;;7.55;2.67;;;;;;;2.15;64.38;97988.88;5096159;28;20503;-68
2022/02/13 05:27:31;;;;;;;7.43;2.97;;;;;;;2.17;64.24;98000.13;5096168;28;20478;-69
2022/02/13 05:29:56;;;;;;;7.53;2.72;;;;;;;2.22;64.16;97998.47;5096153;28;20024;-70
2022/02/13 05:32:22;;;;;;;5.55;2.53;;;;;;;2.13;64.39;97978.50;5096111;28;20024;-70
2022/02/13 05:34:47;;;;;;;8.20;3.47;;;;;;;2.26;63.95;97996.84;5096096;28;20028;-70
2022/02/13 05:37:13;;;;;;;4.85;2.63;;;;;;;2.21;63.99;97990.69;5096131;28;20075;-69
2022/02/13 05:39:39;;;;;;;8.02;3.00;;;;;;;2.22;63.84;97992.44;5095916;28;20012;-70
2022/02/13 05:42:04;;;;;;;4.47;2.47;;;;;;;2.22;63.68;97993.31;5095803;28;20089;-69
2022/02/13 05:44:30;;;;;;;3.92;2.38;;;;;;;2.20;63.87;97989.81;5095807;28;20090;-70
2022/02/13 05:46:55;;;;;;;3.25;2.17;;;;;;;2.24;63.83;97995.91;5095840;28;20032;-69
2022/02/13 05:49:21;;;;;;;6.60;2.88;;;;;;;2.25;63.59;98002.81;5095696;28;20012;-69
2022/02/13 05:51:47;;;;;;;4.18;2.55;;;;;;;2.07;63.58;97980.09;5095887;28;20032;-69
2022/02/13 05:54:12;;;;;;;8.60;3.17;;;;;;;2.16;63.92;97997.50;5095727;28;20458;-69
2022/02/13 05:56:38;;;;;;;3.90;2.53;;;;;;;2.16;63.89;97994.91;5095683;28;20032;-70
2022/02/13 05:59:04;;;;;;;6.63;2.75;;;;;;;2.19;63.56;97995.81;5095621;28;20025;-70
2022/02/13 06:01:29;;;;;;;7.05;2.88;;;;;;;2.23;63.66;97996.78;5095610;28;20390;-70
2022/02/13 06:03:55;;;;;;;8.80;2.30;;;;;;;2.27;63.26;98001.16;5095445;28;20036;-70
2022/02/13 06:06:20;;;;;;;11.35;2.63;;;;;;;2.23;63.65;98001.94;5095532;28;20088;-71
2022/02/13 06:08:46;;;;;;;5.55;2.22;;;;;;;2.33;63.51;98005.53;5095384;28;20085;-70
2022/02/13 06:11:12;;;;;;;4.15;2.45;;;;;;;2.30;63.08;97997.75;5095302;28;20023;-70
2022/02/13 06:13:39;;;;;;;6.03;2.90;;;;;;;2.34;63.00;98004.69;5095256;28;20385;-68
2022/02/13 06:16:06;;;;;;;4.68;2.13;;;;;;;2.32;62.78;98007.25;5095248;28;20056;-70
2022/02/13 06:18:34;;;;;;;6.63;2.40;;;;;;;2.38;62.70;98001.34;5095050;28;20494;-70
2022/02/13 06:21:01;;;;;;;6.38;2.25;;;;;;;2.41;62.72;98001.41;5095296;28;20036;-70
2022/02/13 06:23:27;;;;;;;5.05;2.47;;;;;;;2.42;62.51;97997.97;5095006;28;20069;-69
2022/02/13 06:25:54;;;;;;;6.07;2.35;;;;;;;2.46;62.41;97996.28;5095134;28;20028;-69
2022/02/13 06:28:20;;;;;;;4.15;2.00;;;;;;;2.46;61.95;97998.88;5095018;28;20489;-69
2022/02/13 06:30:45;;;;;;;6.13;2.35;;;;;;;2.42;61.88;97997.09;5095090;28;20052;-70
2022/02/13 06:33:11;;;;;;;2.78;2.13;;;;;;;2.45;62.18;98003.19;5094984;28;20500;-70
2022/02/13 06:35:37;;;;;;;7.60;2.60;;;;;;;2.37;61.96;97995.31;5094935;28;20021;-69
2022/02/13 06:38:03;;;;;;;4.20;2.33;;;;;;;2.39;62.12;98014.28;5094941;28;20608;-70
2022/02/13 06:40:29;;;;;;;6.95;2.50;;;;;;;2.47;61.75;98005.81;5094809;28;20024;-69
2022/02/13 06:42:55;;;;;;;8.20;2.80;;;;;;;2.50;61.93;98004.13;5094775;28;20024;-69
2022/02/13 06:45:21;;;;;;;3.40;2.28;;;;;;;2.55;61.45;98005.91;5094733;28;20488;-69
2022/02/13 06:47:47;;;;;;;6.47;2.55;;;;;;;2.55;61.35;97998.16;5094632;28;20034;-69
2022/02/13 06:50:13;;;;;;;8.07;2.58;;;;;;;2.51;61.41;97997.25;5094593;28;20030;-70
2022/02/13 06:52:39;;;;;;;8.50;2.10;;;;;;;2.54;61.46;97997.31;5094614;28;20030;-70
2022/02/13 06:55:05;;;;;;;6.03;2.38;;;;;;;2.57;61.67;98005.13;5094482;28;20036;-70
2022/02/13 06:57:32;;;;;;;5.05;2.42;;;;;;;2.52;61.33;97999.88;5094447;28;20073;-70
2022/02/13 06:59:58;;;;;;;7.05;2.42;;;;;;;2.51;61.20;97997.25;5094492;28;20020;-70
2022/02/13 07:02:23;;;;;;;6.88;2.08;;;;;;;2.55;61.28;97998.16;5094493;28;20035;-69
2022/02/13 07:04:49;;;;;;;6.40;2.40;;;;;;;2.64;61.51;97994.06;5094275;28;20028;-70
2022/02/13 07:07:14;;;;;;;6.95;2.83;;;;;;;2.69;61.57;98001.88;5094260;28;20088;-70
2022/02/13 07:09:40;;;;;;;7.05;2.42;;;;;;;2.74;60.89;98001.97;5094081;28;20114;-70
2022/02/13 07:12:09;;;;;;;4.28;2.22;;;;;;;2.78;60.49;97998.59;5094166;28;20095;-70
2022/02/13 07:14:39;;;;;;;6.55;2.40;;;;;;;2.88;60.22;97999.59;5094285;28;20500;-69
2022/02/13 07:17:05;;;;;;;4.88;2.35;;;;;;;2.89;59.96;98003.94;5094014;28;20496;-69
2022/02/13 07:19:32;;;;;;;4.15;2.33;;;;;;;2.88;60.11;97997.88;5093896;28;20036;-70
2022/02/13 07:21:58;;;;;;;6.35;2.40;;;;;;;2.84;59.83;97992.63;5094175;28;20456;-68
2022/02/13 07:24:24;;;;;;;10.20;2.53;;;;;;;2.87;60.15;97997.84;5093795;28;20020;-67
2022/02/13 07:26:51;;;;;;;3.40;2.10;;;;;;;2.84;60.33;97990.06;5093851;28;20101;-69
2022/02/13 07:29:17;;;;;;;6.25;2.45;;;;;;;2.86;59.66;97989.22;5093964;28;20455;-70
2022/02/13 07:31:43;;;;;;;5.15;2.10;;;;;;;2.89;60.31;97989.28;5093878;28;20030;-69
2022/02/13 07:34:09;;;;;;;5.47;2.53;;;;;;;2.96;60.02;97989.38;5093809;28;20091;-70
2022/02/13 07:36:36;;;;;;;4.03;2.22;;;;;;;2.98;60.12;97988.53;5093728;28;20429;-70
2022/02/13 07:39:03;;;;;;;5.30;2.53;;;;;;;3.00;59.46;97993.75;5093272;28;20020;-70
2022/02/13 07:41:28;;;;;;;6.55;2.20;;;;;;;3.09;59.99;97985.25;5093717;28;20377;-70
2022/02/13 07:43:55;;;;;;;5.35;2.38;;;;;;;3.14;58.93;97981.03;5093615;28;20035;-69
2022/02/13 07:46:21;;;;;;;5.57;2.25;;;;;;;3.12;59.21;97986.19;5093907;28;20375;-70
2022/02/13 07:48:47;;;;;;;6.60;2.20;;;;;;;3.15;59.12;97985.34;5093500;28;20080;-70
2022/02/13 07:51:15;;;;;;;4.22;2.15;;;;;;;3.10;58.75;97982.69;5093489;28;20069;-70
2022/02/13 07:53:42;;;;;;;5.70;2.22;;;;;;;3.19;58.64;97975.94;5093485;28;20099;-70
2022/02/13 07:56:08;;;;;;;5.88;2.08;;;;;;;3.11;58.52;97976.69;5093455;28;20051;-70
2022/02/13 07:58:35;;;;;;;7.25;2.45;;;;;;;3.04;58.49;97969.66;5093336;28;20016;-70
2022/02/13 08:01:03;;;;;;;3.08;1.98;;;;;;;3.05;58.98;97971.44;5093433;28;20023;-70
2022/02/13 08:03:29;;;;;;;7.40;2.17;;;;;;;3.11;58.99;97979.28;5093211;28;20505;-70
2022/02/13 08:05:55;;;;;;;4.78;2.08;;;;;;;3.16;59.15;97974.16;5093378;28;20036;-70
2022/02/13 08:08:20;;;;;;;3.97;2.30;;;;;;;3.19;57.78;97970.75;5093155;28;20422;-70
2022/02/13 08:10:47;;;;;;;9.10;2.35;;;;;;;3.27;58.68;97967.44;5093360;28;20103;-70
2022/02/13 08:13:16;;;;;;;6.35;2.38;;;;;;;3.22;57.50;97968.22;5093202;28;20478;-68
2022/02/13 08:15:43;;;;;;;5.53;2.13;;;;;;;3.19;57.94;97966.44;5093100;28;20032;-68
2022/02/13 08:18:13;;;;;;;3.22;1.92;;;;;;;3.20;58.26;97967.31;5092902;28;20044;-70
2022/02/13 08:20:39;;;;;;;7.88;2.67;;;;;;;3.27;58.02;97967.44;5093309;28;20039;-70
2022/02/13 08:23:07;;;;;;;4.63;2.10;;;;;;;3.38;58.33;97964.13;5093033;28;20127;-70
2022/02/13 08:25:33;;;;;;;5.10;2.20;;;;;;;3.46;57.04;97961.66;5093239;28;20024;-70
2022/02/13 08:28:00;;;;;;;10.02;2.28;;;;;;;3.52;57.49;97959.13;5092976;28;20043;-70
2022/02/13 08:30:27;;;;;;;5.57;2.10;;;;;;;3.62;56.34;97958.41;5092913;28;20035;-68
2022/02/13 08:32:57;;;;;;;3.83;1.75;;;;;;;3.74;56.52;97959.41;5093037;28;20432;-69
2022/02/13 08:35:24;;;;;;;5.10;1.98;;;;;;;3.71;55.78;97949.88;5093007;28;20066;-70
2022/02/13 08:37:49;;;;;;;2.80;1.98;;;;;;;3.75;56.42;97948.19;5092874;28;20020;-67
2022/02/13 08:40:15;;;;;;;4.13;1.75;;;;;;;3.85;56.46;97952.63;5092910;28;20028;-70
2022/02/13 08:42:41;;;;;;;6.05;2.17;;;;;;;3.85;55.64;97951.78;5092882;28;20535;-70
2022/02/13 08:45:08;;;;;;;7.47;2.20;;;;;;;3.81;55.96;97949.97;5092910;28;20024;-70
2022/02/13 08:47:34;;;;;;;3.65;1.88;;;;;;;3.79;55.76;97943.06;5092860;28;20028;-69
2022/02/13 08:50:03;;;;;;;3.50;2.10;;;;;;;3.78;56.10;97950.81;5092909;28;20038;-68
2022/02/13 08:52:29;;;;;;;3.92;2.30;;;;;;;3.81;56.01;97949.97;5095537;28;20458;-68
2022/02/13 08:54:55;;;;;;;3.42;2.05;;;;;;;3.88;55.47;97950.06;5096772;28;20103;-70
2022/02/13 08:57:21;;;;;;;4.68;2.03;;;;;;;3.84;55.37;97948.31;5096816;28;20028;-69
2022/02/13 08:59:47;;;;;;;6.00;2.13;;;;;;;3.95;55.44;97944.97;5096728;28;20020;-68
2022/02/13 09:02:13;;;;;;;5.88;1.95;;;;;;;3.97;55.03;97931.16;5096626;28;20027;-70
2022/02/13 09:04:39;;;;;;;2.95;2.25;;;;;;;4.19;55.18;97933.13;5096598;28;20032;-70
2022/02/13 09:07:04;;;;;;;3.80;1.90;;;;;;;4.37;55.23;97941.06;5096681;28;20035;-70
2022/02/13 09:09:34;;;;;;;5.20;2.03;;;;;;;4.48;53.87;97927.34;5096615;28;20028;-69
2022/02/13 09:12:00;;;;;;;4.22;2.00;;;;;;;4.58;53.27;97923.09;5096381;28;20466;-69
2022/02/13 09:14:25;;;;;;;3.65;2.60;;;;;;;4.62;53.11;97922.25;5096480;28;20020;-69
2022/02/13 09:16:51;;;;;;;8.00;2.50;;;;;;;4.65;53.31;97919.69;5096419;28;20042;-69
2022/02/13 09:19:19;;;;;;;10.98;2.17;;;;;;;4.68;52.59;97909.34;5096176;28;20036;-69
2022/02/13 09:21:45;;;;;;;5.32;2.20;;;;;;;4.78;52.70;97912.88;5096290;28;20039;-70
2022/02/13 09:24:10;;;;;;;5.20;2.35;;;;;;;4.94;52.83;97916.47;5096281;28;20032;-69
2022/02/13 09:26:36;;;;;;;5.20;2.00;;;;;;;5.00;51.78;97907.84;5095533;28;20060;-69
2022/02/13 09:29:02;;;;;;;8.40;3.00;;;;;;;5.08;52.46;97906.16;5096202;28;20024;-70
2022/02/13 09:31:28;;;;;;;2.78;2.22;;;;;;;5.27;51.47;97901.09;5096178;28;20020;-70
2022/02/13 09:33:53;;;;;;;6.68;2.53;;;;;;;5.44;50.73;97895.94;5096170;28;20089;-69
2022/02/13 09:36:19;;;;;;;4.25;1.92;;;;;;;5.61;48.45;97895.16;5095981;28;20020;-69
2022/02/13 09:38:46;;;;;;;4.90;2.08;;;;;;;5.45;48.91;97895.13;5096165;28;20389;-69
2022/02/13 09:41:17;;;;;;;4.45;1.98;;;;;;;5.56;48.93;97889.94;5095953;28;20385;-69
2022/02/13 09:43:43;;;;;;;3.28;1.80;;;;;;;5.53;49.11;97880.44;5096073;28;20114;-69
2022/02/13 09:46:12;;;;;;;4.80;2.20;;;;;;;5.60;49.97;97883.91;5095772;28;20031;-69
2022/02/13 09:48:38;;;;;;;9.10;4.63;;;;;;;5.64;49.58;97879.59;5095714;28;20016;-69
2022/02/13 09:51:04;;;;;;;11.20;5.07;;;;;;;5.60;48.85;97875.25;5095749;28;20073;-69
2022/02/13 09:53:34;;;;;;;4.57;2.92;;;;;;;5.83;47.90;97875.31;5095782;28;20039;-69
2022/02/13 09:56:01;;;;;;;4.53;2.53;;;;;;;5.97;47.98;97875.34;5095872;28;20051;-69
2022/02/13 09:58:27;;;;;;;4.43;1.88;;;;;;;6.06;46.64;97874.53;5095658;28;20028;-69
2022/02/13 10:00:54;;;;;;;7.60;2.15;;;;;;;6.16;45.97;97868.47;5095439;28;20032;-69
2022/02/13 10:03:32;;;;;;;5.80;2.05;;;;;;;6.35;46.47;97859.84;5095053;28;20381;-69
2022/02/13 10:06:02;;;;;;;6.57;2.00;;;;;;;6.15;46.40;97863.28;5095490;28;20505;-69
2022/02/13 10:08:41;;;;;;;4.57;2.33;;;;;;;6.10;46.76;97855.47;5077359;28;20032;-68
2022/02/13 10:11:08;;;;;;;2.67;1.52;;;;;;;6.24;46.22;97852.03;5095355;28;20028;-69
2022/02/13 10:13:55;;;;;;;5.03;1.80;;;;;;;6.30;47.14;97844.22;5095236;28;20066;-69
2022/02/13 10:16:30;;;;;;;4.47;2.42;;;;;;;6.41;46.44;97845.09;5095396;28;20038;-69
2022/02/13 10:19:26;;;;;;;6.07;2.28;;;;;;;6.64;45.10;97835.53;5095111;28;20082;-70
2022/02/13 10:21:56;;;;;;;2.92;1.60;;;;;;;6.69;44.38;97833.81;5095244;28;20492;-69
2022/02/13 10:24:28;;;;;;;4.40;1.50;;;;;;;6.68;42.00;97825.13;5094941;28;20447;-69
2022/02/13 10:26:54;;;;;;;2.00;1.60;;;;;;;6.62;41.00;97819.94;5095164;28;20044;-69
2022/02/13 10:29:22;;;;;;;3.53;1.90;;;;;;;6.70;42.17;97810.41;5095227;28;20059;-69
2022/02/13 10:31:52;;;;;;;3.45;1.70;;;;;;;6.86;40.94;97796.50;5095140;28;20085;-70
2022/02/13 10:34:23;;;;;;;3.65;1.90;;;;;;;7.15;42.07;97798.09;5094902;28;20036;-69
2022/02/13 10:36:49;;;;;;;4.40;1.70;;;;;;;7.16;41.22;97798.09;5095005;28;20057;-69
2022/02/13 10:39:24;;;;;;;4.50;2.03;;;;;;;7.14;41.31;97783.38;5094856;28;20020;-69
2022/02/13 10:41:56;;;;;;;3.85;1.65;;;;;;;7.17;41.83;97779.00;5094993;28;20028;-69
2022/02/13 10:44:27;;;;;;;5.63;1.65;;;;;;;7.48;42.39;97771.91;5094646;28;20040;-70
2022/02/13 10:46:53;;;;;;;4.78;1.80;;;;;;;7.59;42.40;97776.19;5094599;28;20477;-69
2022/02/13 10:49:19;;;;;;;5.22;1.67;;;;;;;7.52;42.25;97765.81;5094732;28;20055;-69
2022/02/13 10:51:46;;;;;;;4.50;2.15;;;;;;;7.57;43.49;97764.94;5094687;28;20505;-69
2022/02/13 10:54:12;;;;;;;4.72;2.40;;;;;;;7.62;42.49;97761.41;5094527;28;20405;-69
2022/02/13 10:56:38;;;;;;;3.60;2.35;;;;;;;7.57;43.11;97753.63;5094344;28;20085;-69
2022/02/13 10:59:12;;;;;;;5.63;1.80;;;;;;;7.67;43.77;97751.81;5094457;28;20016;-69
2022/02/13 11:01:39;;;;;;;4.70;2.15;;;;;;;7.73;42.86;97748.34;5094386;28;20012;-69
2022/02/13 11:04:06;;;;;;;6.25;2.28;;;;;;;7.83;42.65;97750.84;5094380;28;20068;-69
2022/02/13 11:06:39;;;;;;;5.90;1.90;;;;;;;8.05;42.07;97729.84;5094379;28;20042;-70
2022/02/13 11:09:26;;;;;;;4.43;2.10;;;;;;;8.23;39.74;97735.75;5094298;28;20355;-70
2022/02/13 11:11:52;;;;;;;2.22;1.52;;;;;;;7.96;39.65;97736.00;5094393;28;20473;-69
2022/02/13 11:14:36;;;;;;;6.97;2.58;;;;;;;7.56;39.65;97731.06;5093402;28;20027;-69
2022/02/13 11:17:04;;;;;;;4.22;2.30;;;;;;;7.41;39.94;97732.03;5094129;28;20020;-69
2022/02/13 11:19:32;;;;;;;2.45;1.80;;;;;;;7.38;39.91;97712.09;5093753;28;20048;-69
2022/02/13 11:21:58;;;;;;;4.05;1.80;;;;;;;7.51;39.97;97712.00;5094036;28;20035;-69
2022/02/13 11:24:26;;;;;;;4.30;1.80;;;;;;;7.49;41.32;97717.22;5094018;28;20024;-69
2022/02/13 11:26:59;;;;;;;4.43;1.92;;;;;;;7.61;39.97;97712.81;5094030;28;20457;-69
2022/02/13 11:29:51;;;;;;;4.90;1.75;;;;;;;7.83;39.52;97714.34;5076876;28;20452;-69
2022/02/13 11:32:37;;;;;;;3.15;1.73;;;;;;;7.95;38.48;97702.97;5094085;28;20035;-70
2022/02/13 11:35:08;;;;;;;3.33;2.00;;;;;;;8.03;39.67;97697.69;5093680;28;20028;-68
2022/02/13 11:37:44;;;;;;;4.90;1.80;;;;;;;8.29;40.33;97701.81;5093789;28;20024;-70
2022/02/13 11:40:33;;;;;;;5.32;2.03;;;;;;;8.47;39.81;97687.72;5093837;28;20019;-70